createdAt,value
2018-11-04T00:00:01.468Z,114.23
2018-11-04T00:02:29.768Z,138.07
2018-11-04T00:04:58.197Z,134.47
2018-11-04T00:07:26.612Z,125.87
2018-11-04T00:09:55.023Z,117.83
2018-11-04T00:12:23.445Z,122.17
2018-11-04T00:14:52.516Z,138.27
2018-11-04T00:17:20.943Z,147.77
2018-11-04T00:19:49.375Z,143.03
2018-11-04T00:22:17.802Z,139.63
2018-11-04T00:24:46.199Z,143.97
2018-11-04T00:27:14.606Z,136.80
2018-11-04T00:29:43.021Z,132.97
2018-11-04T00:32:11.453Z,132.47
2018-11-04T00:34:39.911Z,132.90
2018-11-04T00:37:09.035Z,131.37
2018-11-04T00:39:37.452Z,128.83
2018-11-04T00:42:05.958Z,127.17
2018-11-04T00:44:34.442Z,118.57
2018-11-04T00:47:02.908Z,106.27
2018-11-04T00:49:31.341Z,119.63
2018-11-04T00:51:59.743Z,126.60
2018-11-04T00:54:28.151Z,129.63
2018-11-04T00:56:56.535Z,132.67
2018-11-04T00:59:24.966Z,129.10
2018-11-04T01:01:53.379Z,137.50
2018-11-04T01:04:22.881Z,134.57
2018-11-04T01:06:51.277Z,133.47
2018-11-04T01:09:19.848Z,132.07
2018-11-04T01:11:49.371Z,132.27
2018-11-04T01:14:17.762Z,132.37
2018-11-04T01:16:46.176Z,137.33
2018-11-04T01:19:14.567Z,130.47
2018-11-04T01:21:42.967Z,127.63
2018-11-04T01:24:11.400Z,118.07
2018-11-04T01:26:39.818Z,124.37
2018-11-04T01:29:08.774Z,130.03
2018-11-04T01:31:37.275Z,141.27
2018-11-04T01:34:06.114Z,136.77
2018-11-04T01:36:34.715Z,138.80
2018-11-04T01:39:03.312Z,143.63
2018-11-04T01:41:31.729Z,139.63
2018-11-04T01:44:00.128Z,144.23
2018-11-04T01:46:28.550Z,136.97
2018-11-04T01:48:56.947Z,135.10
2018-11-04T01:51:25.410Z,131.97
2018-11-04T01:53:53.877Z,135.93
2018-11-04T01:56:22.416Z,134.17
2018-11-04T01:58:51.819Z,130.93
2018-11-04T02:01:20.352Z,129.40
2018-11-04T02:03:48.740Z,131.13
2018-11-04T02:06:17.183Z,126.20
2018-11-04T02:08:45.599Z,124.33
2018-11-04T02:11:14.112Z,121.47
2018-11-04T02:13:42.503Z,122.27
2018-11-04T02:16:10.910Z,117.80
2018-11-04T02:18:40.001Z,120.33
2018-11-04T02:21:08.443Z,118.17
2018-11-04T02:23:36.831Z,117.63
2018-11-04T02:26:05.467Z,112.23
2018-11-04T02:28:34.906Z,112.23
2018-11-04T02:31:03.309Z,107.33
2018-11-04T02:33:31.723Z,101.23
2018-11-04T02:36:00.142Z,93.80
2018-11-04T02:38:28.580Z,102.83
2018-11-04T02:40:57.583Z,107.27
2018-11-04T02:43:26.917Z,112.60
2018-11-04T02:45:55.316Z,116.30
2018-11-04T02:48:23.728Z,118.63
2018-11-04T02:50:52.123Z,114.70
2018-11-04T02:53:21.210Z,113.17
2018-11-04T02:55:50.224Z,108.67
2018-11-04T02:58:19.353Z,110.77
2018-11-04T03:00:48.540Z,108.90
2018-11-04T03:03:17.543Z,112.50
2018-11-04T03:05:46.725Z,107.10
2018-11-04T03:08:15.743Z,105.27
2018-11-04T03:10:44.132Z,100.70
2018-11-04T03:13:12.655Z,102.57
2018-11-04T03:15:41.791Z,103.73
2018-11-04T03:18:10.470Z,103.70
2018-11-04T03:20:38.952Z,99.47
2018-11-04T03:23:08.424Z,101.17
2018-11-04T03:25:37.639Z,97.27
2018-11-04T03:28:07.500Z,97.03
2018-11-04T03:30:36.736Z,94.07
2018-11-04T03:33:06.183Z,95.77
2018-11-04T03:35:34.604Z,93.80
2018-11-04T03:38:03.743Z,90.33
2018-11-04T03:40:32.873Z,92.20
2018-11-04T03:43:01.498Z,82.67
2018-11-04T03:45:29.888Z,87.20
2018-11-04T03:47:58.284Z,87.43
2018-11-04T03:50:26.642Z,86.63
2018-11-04T03:53:09.175Z,80.23
2018-11-04T03:55:39.787Z,83.17
2018-11-04T03:58:08.399Z,80.90
2018-11-04T04:00:36.884Z,80.90
2018-11-04T04:03:05.511Z,79.53
2018-11-04T04:05:34.039Z,77.67
2018-11-04T04:08:02.471Z,78.70
2018-11-04T04:10:31.451Z,78.93
2018-11-04T04:12:59.894Z,74.37
2018-11-04T04:15:28.323Z,75.40
2018-11-04T04:17:56.739Z,75.30
2018-11-04T04:20:25.123Z,74.57
2018-11-04T04:22:53.533Z,73.80
2018-11-04T04:25:21.942Z,70.27
2018-11-04T04:27:50.559Z,72.27
2018-11-04T04:30:18.947Z,69.50
2018-11-04T04:32:48.230Z,69.20
2018-11-04T04:35:16.631Z,69.07
2018-11-04T04:37:45.017Z,68.30
2018-11-04T04:40:13.456Z,68.50
2018-11-04T04:42:41.842Z,66.90
2018-11-04T04:45:10.239Z,65.43
2018-11-04T04:47:38.923Z,63.10
2018-11-04T04:50:07.516Z,64.83
2018-11-04T04:52:35.989Z,62.63
2018-11-04T04:55:04.431Z,63.50
2018-11-04T04:57:32.821Z,62.07
2018-11-04T05:00:01.213Z,60.77
2018-11-04T05:02:29.745Z,61.50
2018-11-04T05:04:58.788Z,62.67
2018-11-04T05:07:27.189Z,59.67
2018-11-04T05:09:55.579Z,60.53
2018-11-04T05:12:24.021Z,59.47
2018-11-04T05:14:52.434Z,57.33
2018-11-04T05:17:20.858Z,59.07
2018-11-04T05:19:49.247Z,56.97
2018-11-04T05:22:17.607Z,56.37
2018-11-04T05:24:46.016Z,56.83
2018-11-04T05:27:14.399Z,54.57
2018-11-04T05:29:42.816Z,56.03
2018-11-04T05:32:11.286Z,55.97
2018-11-04T05:34:39.725Z,54.10
2018-11-04T05:37:08.116Z,55.17
2018-11-04T05:39:37.348Z,53.30
2018-11-04T05:42:05.863Z,51.37
2018-11-04T05:44:34.858Z,50.97
2018-11-04T05:47:03.277Z,51.27
2018-11-04T05:49:31.662Z,50.73
2018-11-04T05:52:00.471Z,49.63
2018-11-04T05:54:28.859Z,48.67
2018-11-04T05:56:57.257Z,47.87
2018-11-04T05:59:25.610Z,53.63
2018-11-04T06:01:54.004Z,65.30
2018-11-04T06:04:22.411Z,55.87
2018-11-04T06:06:51.526Z,41.00
2018-11-04T06:09:19.919Z,38.10
2018-11-04T06:11:48.320Z,45.83
2018-11-04T06:14:16.732Z,44.37
2018-11-04T06:16:45.123Z,47.10
2018-11-04T06:19:13.538Z,49.33
2018-11-04T06:21:41.913Z,57.27
2018-11-04T06:24:10.295Z,61.93
2018-11-04T06:26:38.747Z,56.27
2018-11-04T06:29:07.134Z,53.17
2018-11-04T06:31:35.538Z,52.90
2018-11-04T06:34:04.456Z,50.77
2018-11-04T06:36:32.852Z,50.07
2018-11-04T06:39:02.455Z,51.97
2018-11-04T06:41:30.877Z,51.20
2018-11-04T06:43:59.272Z,59.97
2018-11-04T06:46:27.661Z,60.73
2018-11-04T06:48:56.039Z,57.27
2018-11-04T06:51:24.451Z,53.30
2018-11-04T06:53:52.874Z,54.43
2018-11-04T06:56:21.268Z,52.20
2018-11-04T06:58:49.662Z,51.73
2018-11-04T07:01:18.044Z,51.43
2018-11-04T07:03:58.038Z,51.17
2018-11-04T07:06:26.437Z,48.40
2018-11-04T07:08:54.890Z,48.13
2018-11-04T07:11:23.291Z,47.23
2018-11-04T07:13:51.712Z,46.77
2018-11-04T07:16:20.130Z,46.13
2018-11-04T07:18:48.572Z,46.10
2018-11-04T07:21:16.968Z,45.77
2018-11-04T07:23:45.376Z,44.53
2018-11-04T07:26:13.778Z,43.53
2018-11-04T07:28:42.148Z,43.73
2018-11-04T07:31:10.668Z,41.20
2018-11-04T07:33:39.564Z,42.57
2018-11-04T07:36:08.125Z,40.97
2018-11-04T07:38:36.508Z,42.33
2018-11-04T07:41:05.208Z,41.03
2018-11-04T07:43:33.671Z,38.60
2018-11-04T07:46:02.140Z,37.70
2018-11-04T07:48:30.537Z,38.67
2018-11-04T07:50:59.400Z,69.30
2018-11-04T07:53:27.988Z,76.20
2018-11-04T07:55:56.472Z,67.77
2018-11-04T07:58:24.897Z,64.33
2018-11-04T08:00:53.655Z,64.70
2018-11-04T08:03:21.991Z,63.03
2018-11-04T08:05:50.449Z,63.50
2018-11-04T08:08:18.897Z,59.63
2018-11-04T08:10:47.383Z,58.63
2018-11-04T08:13:15.836Z,60.13
2018-11-04T08:15:44.211Z,78.87
2018-11-04T08:18:12.592Z,84.23
2018-11-04T08:20:41.000Z,88.20
2018-11-04T08:23:09.476Z,80.50
2018-11-04T08:25:37.907Z,76.47
2018-11-04T08:28:06.837Z,76.53
2018-11-04T08:30:35.262Z,73.90
2018-11-04T08:33:03.652Z,74.43
2018-11-04T08:35:32.646Z,70.37
2018-11-04T08:38:01.724Z,71.53
2018-11-04T08:40:30.429Z,77.53
2018-11-04T08:42:58.693Z,81.37
2018-11-04T08:45:27.102Z,86.37
2018-11-04T08:47:55.501Z,88.30
2018-11-04T08:50:23.991Z,91.40
2018-11-04T08:52:52.700Z,88.70
2018-11-04T08:55:21.149Z,90.47
2018-11-04T08:57:50.030Z,87.10
2018-11-04T09:00:18.457Z,89.47
2018-11-04T09:02:46.970Z,83.20
2018-11-04T09:05:15.392Z,85.30
2018-11-04T09:07:43.817Z,84.70
2018-11-04T09:10:14.161Z,100.30
2018-11-04T09:12:43.053Z,101.87
2018-11-04T09:15:11.942Z,115.10
2018-11-04T09:17:40.380Z,94.60
2018-11-04T09:20:12.084Z,95.93
2018-11-04T09:22:41.293Z,98.80
2018-11-04T09:25:10.660Z,101.37
2018-11-04T09:27:39.223Z,101.47
2018-11-04T09:30:10.184Z,102.20
2018-11-04T09:32:38.988Z,101.43
2018-11-04T09:35:08.508Z,97.53
2018-11-04T09:37:36.936Z,99.87
2018-11-04T09:40:07.333Z,96.13
2018-11-04T09:42:35.751Z,90.00
2018-11-04T09:45:04.171Z,89.30
2018-11-04T09:47:32.567Z,91.03
2018-11-04T09:50:01.119Z,87.87
2018-11-04T09:52:30.370Z,89.73
2018-11-04T09:54:58.806Z,90.30
2018-11-04T09:57:27.288Z,98.90
2018-11-04T09:59:55.723Z,102.90
2018-11-04T10:02:24.140Z,101.50
2018-11-04T10:04:52.558Z,98.93
2018-11-04T10:07:20.968Z,100.70
2018-11-04T10:09:49.651Z,100.57
2018-11-04T10:12:18.147Z,97.53
2018-11-04T10:14:46.560Z,96.93
2018-11-04T10:17:14.971Z,96.77
2018-11-04T10:19:43.534Z,89.80
2018-11-04T10:22:12.191Z,93.27
2018-11-04T10:24:40.671Z,101.10
2018-11-04T10:27:09.213Z,113.00
2018-11-04T10:29:37.659Z,118.50
2018-11-04T10:32:06.052Z,121.03
2018-11-04T10:34:34.458Z,120.20
2018-11-04T10:37:02.968Z,118.17
2018-11-04T10:39:31.353Z,107.93
2018-11-04T10:41:59.761Z,107.57
2018-11-04T10:44:28.331Z,109.00
2018-11-04T10:46:56.749Z,108.90
2018-11-04T10:49:25.206Z,108.07
2018-11-04T10:51:53.613Z,108.00
2018-11-04T10:54:22.065Z,108.93
2018-11-04T10:56:50.603Z,106.87
2018-11-04T10:59:19.040Z,106.60
2018-11-04T11:01:47.573Z,105.23
2018-11-04T11:04:15.954Z,102.03
2018-11-04T11:06:44.376Z,102.07
2018-11-04T11:09:12.787Z,99.50
2018-11-04T11:11:41.712Z,101.00
2018-11-04T11:14:10.131Z,101.47
2018-11-04T11:16:38.559Z,99.43
2018-11-04T11:19:07.010Z,97.43
2018-11-04T11:21:35.537Z,93.93
2018-11-04T11:24:04.015Z,100.03
2018-11-04T11:26:32.439Z,100.70
2018-11-04T11:29:00.892Z,105.70
2018-11-04T11:31:29.479Z,103.20
2018-11-04T11:33:57.884Z,101.03
2018-11-04T11:36:26.723Z,96.83
2018-11-04T11:38:55.161Z,94.43
2018-11-04T11:41:23.646Z,94.50
2018-11-04T11:43:52.078Z,94.93
2018-11-04T11:46:20.512Z,102.83
2018-11-04T11:48:49.077Z,101.43
2018-11-04T11:51:17.508Z,102.53
2018-11-04T11:53:45.995Z,103.33
2018-11-04T11:56:14.450Z,103.73
2018-11-04T11:58:42.899Z,101.47
2018-11-04T12:01:11.328Z,98.97
2018-11-04T12:03:39.811Z,100.20
2018-11-04T12:06:08.210Z,95.77
2018-11-04T12:08:36.659Z,101.43
2018-11-04T12:11:05.504Z,108.47
2018-11-04T12:13:34.012Z,118.80
2018-11-04T12:16:02.443Z,118.43
2018-11-04T12:18:30.918Z,123.23
2018-11-04T12:20:59.937Z,128.93
2018-11-04T12:23:28.400Z,132.57
2018-11-04T12:25:56.753Z,134.13
2018-11-04T12:28:25.164Z,133.30
2018-11-04T12:30:53.615Z,133.03
2018-11-04T12:33:22.133Z,129.33
2018-11-04T12:35:50.997Z,125.97
2018-11-04T12:38:20.392Z,120.77
2018-11-04T12:40:48.803Z,122.33
2018-11-04T12:43:17.244Z,116.13
2018-11-04T12:45:45.726Z,117.97
2018-11-04T12:48:14.106Z,118.10
2018-11-04T12:50:42.764Z,132.17
2018-11-04T12:53:11.278Z,135.50
2018-11-04T12:55:39.688Z,133.67
2018-11-04T12:58:08.075Z,126.83
2018-11-04T13:00:36.496Z,124.60
2018-11-04T13:03:04.956Z,120.30
2018-11-04T13:05:33.707Z,118.17
2018-11-04T13:08:02.151Z,113.70
2018-11-04T13:10:30.629Z,114.70
2018-11-04T13:12:59.171Z,112.40
2018-11-04T13:15:27.691Z,111.03
2018-11-04T13:17:56.132Z,112.13
2018-11-04T13:20:24.552Z,106.57
2018-11-04T13:22:52.987Z,109.63
2018-11-04T13:25:21.463Z,99.07
2018-11-04T13:27:49.911Z,108.47
2018-11-04T13:30:18.320Z,114.20
2018-11-04T13:32:46.744Z,110.80
2018-11-04T13:35:15.172Z,111.13
2018-11-04T13:37:43.696Z,118.47
2018-11-04T13:40:12.547Z,116.70
2018-11-04T13:42:41.636Z,114.67
2018-11-04T13:45:10.727Z,112.13
2018-11-04T13:47:39.227Z,110.90
2018-11-04T13:50:10.777Z,106.13
2018-11-04T13:52:39.789Z,107.77
2018-11-04T13:55:08.272Z,104.70
2018-11-04T13:57:37.176Z,107.13
2018-11-04T14:00:07.705Z,100.07
2018-11-04T14:02:36.738Z,96.60
2018-11-04T14:05:07.597Z,78.43
2018-11-04T14:07:36.020Z,74.03
2018-11-04T14:10:05.278Z,73.80
2018-11-04T14:12:34.707Z,73.17
2018-11-04T14:15:03.135Z,68.33
2018-11-04T14:17:32.164Z,69.97
2018-11-04T14:20:01.548Z,65.20
2018-11-04T14:22:30.674Z,61.87
2018-11-04T14:25:00.259Z,58.97
2018-11-04T14:27:29.043Z,55.57
2018-11-04T14:29:57.491Z,53.73
2018-11-04T14:32:27.345Z,49.83
2018-11-04T14:34:55.788Z,48.63
2018-11-04T14:37:24.273Z,49.00
2018-11-04T14:39:53.019Z,45.73
2018-11-04T14:42:21.806Z,43.83
2018-11-04T14:44:50.221Z,44.97
2018-11-04T14:47:18.797Z,42.13
2018-11-04T14:49:47.599Z,44.67
2018-11-04T14:52:16.004Z,45.20
2018-11-04T14:54:45.192Z,48.20
2018-11-04T14:57:14.030Z,47.93
2018-11-04T14:59:42.958Z,47.10
2018-11-04T15:02:11.455Z,47.43
2018-11-04T15:04:39.937Z,46.83
2018-11-04T15:07:09.421Z,44.07
2018-11-04T15:09:38.476Z,43.57
2018-11-04T15:12:07.144Z,41.90
2018-11-04T15:14:36.179Z,41.70
2018-11-04T15:17:04.586Z,40.40
2018-11-04T15:19:32.996Z,39.00
2018-11-04T15:22:01.999Z,38.17
2018-11-04T15:24:30.969Z,39.37
2018-11-04T15:26:59.702Z,38.73
2018-11-04T15:29:28.724Z,38.83
2018-11-04T15:31:57.179Z,40.47
2018-11-04T15:34:25.779Z,40.70
2018-11-04T15:36:54.566Z,43.40
2018-11-04T15:39:23.509Z,45.93
2018-11-04T15:41:51.949Z,49.83
2018-11-04T15:44:20.443Z,44.07
2018-11-04T15:46:48.884Z,46.33
2018-11-04T15:49:17.337Z,48.77
2018-11-04T15:51:45.819Z,50.77
2018-11-04T15:54:14.363Z,44.93
2018-11-04T15:56:42.881Z,42.27
2018-11-04T15:59:11.304Z,45.80
2018-11-04T16:01:39.775Z,48.87
2018-11-04T16:04:08.415Z,53.90
2018-11-04T16:06:36.819Z,59.33
2018-11-04T16:09:07.418Z,61.47
2018-11-04T16:11:35.863Z,61.17
2018-11-04T16:14:04.264Z,59.50
2018-11-04T16:16:32.764Z,62.80
2018-11-04T16:19:01.420Z,60.33
2018-11-04T16:21:29.843Z,59.53
2018-11-04T16:23:58.231Z,61.00
2018-11-04T16:26:26.672Z,60.10
2018-11-04T16:28:55.718Z,54.33
2018-11-04T16:31:24.734Z,52.37
2018-11-04T16:33:53.187Z,50.83
2018-11-04T16:36:21.593Z,52.50
2018-11-04T16:38:50.066Z,49.47
2018-11-04T16:41:18.513Z,46.97
2018-11-04T16:43:47.066Z,45.77
2018-11-04T16:46:16.051Z,42.33
2018-11-04T16:48:44.467Z,41.90
2018-11-04T16:51:12.851Z,36.80
2018-11-04T16:53:41.370Z,39.93
2018-11-04T16:56:09.873Z,34.73
2018-11-04T16:58:38.190Z,36.97
2018-11-04T17:01:06.607Z,35.10
2018-11-04T17:03:35.024Z,33.70
2018-11-04T17:06:03.415Z,32.80
2018-11-04T17:08:31.844Z,33.37
2018-11-04T17:11:00.332Z,53.13
2018-11-04T17:13:28.774Z,66.53
2018-11-04T17:15:57.590Z,83.27
2018-11-04T17:18:26.506Z,89.63
2018-11-04T17:20:55.112Z,85.43
2018-11-04T17:23:24.023Z,80.67
2018-11-04T17:25:52.848Z,69.57
2018-11-04T17:28:21.564Z,68.00
2018-11-04T17:30:51.272Z,66.63
2018-11-04T17:33:19.986Z,65.60
2018-11-04T17:35:48.733Z,67.40
2018-11-04T17:38:17.766Z,62.97
2018-11-04T17:40:46.246Z,87.17
2018-11-04T17:43:14.719Z,73.23
2018-11-04T17:45:43.125Z,70.57
2018-11-04T17:48:11.855Z,66.40
2018-11-04T17:50:40.300Z,65.10
2018-11-04T17:53:08.691Z,62.50
2018-11-04T17:55:37.224Z,61.67
2018-11-04T17:58:05.641Z,60.50
2018-11-04T18:00:34.056Z,58.33
2018-11-04T18:03:02.625Z,57.63
2018-11-04T18:05:31.038Z,57.30
2018-11-04T18:07:59.434Z,54.87
2018-11-04T18:10:27.903Z,54.33
2018-11-04T18:12:56.409Z,53.27
2018-11-04T18:15:26.612Z,58.70
2018-11-04T18:17:56.111Z,88.33
2018-11-04T18:20:24.828Z,72.77
2018-11-04T18:22:53.284Z,76.97
2018-11-04T18:25:21.724Z,79.23
2018-11-04T18:27:50.186Z,73.23
2018-11-04T18:30:18.597Z,78.67
2018-11-04T18:32:47.253Z,69.87
2018-11-04T18:35:15.824Z,66.80
2018-11-04T18:37:44.235Z,64.70
2018-11-04T18:40:14.325Z,61.57
2018-11-04T18:42:43.435Z,58.83
2018-11-04T18:45:13.149Z,58.03
2018-11-04T18:47:41.579Z,62.83
2018-11-04T18:50:12.180Z,70.27
2018-11-04T18:52:40.912Z,66.73
2018-11-04T18:55:10.542Z,64.63
2018-11-04T18:57:39.226Z,64.83
2018-11-04T19:00:09.687Z,62.67
2018-11-04T19:02:38.095Z,61.23
2018-11-04T19:05:07.085Z,60.37
2018-11-04T19:07:35.869Z,61.33
2018-11-04T19:10:04.511Z,81.53
2018-11-04T19:12:32.947Z,78.43
2018-11-04T19:15:01.435Z,64.00
2018-11-04T19:17:29.904Z,72.47
2018-11-04T19:19:58.343Z,95.37
2018-11-04T19:22:27.021Z,108.90
2018-11-04T19:24:55.462Z,101.10
2018-11-04T19:27:23.971Z,100.67
2018-11-04T19:29:52.439Z,112.53
2018-11-04T19:32:20.916Z,104.70
2018-11-04T19:34:49.347Z,103.57
2018-11-04T19:37:17.795Z,93.07
2018-11-04T19:39:46.208Z,86.80
2018-11-04T19:42:15.531Z,83.93
2018-11-04T19:44:43.930Z,79.57
2018-11-04T19:47:12.360Z,79.83
2018-11-04T19:49:40.785Z,77.07
2018-11-04T19:52:09.218Z,73.37
2018-11-04T19:54:37.653Z,69.20
2018-11-04T19:57:06.091Z,66.10
2018-11-04T19:59:34.581Z,86.17
2018-11-04T20:02:03.752Z,128.27
2018-11-04T20:04:32.352Z,119.27
2018-11-04T20:07:01.022Z,92.37
2018-11-04T20:09:30.375Z,79.10
2018-11-04T20:11:59.035Z,85.27
2018-11-04T20:14:27.493Z,75.07
2018-11-04T20:16:57.762Z,82.50
2018-11-04T20:19:31.757Z,73.53
2018-11-04T20:22:00.043Z,76.90
2018-11-04T20:24:37.402Z,71.87
2018-11-04T20:27:05.937Z,94.93
2018-11-04T20:29:34.454Z,84.40
2018-11-04T20:32:08.111Z,95.53
2018-11-04T20:34:36.530Z,78.20
2018-11-04T20:37:05.355Z,87.77
2018-11-04T20:39:39.232Z,78.63
2018-11-04T20:42:07.664Z,91.07
2018-11-04T20:44:42.157Z,111.73
2018-11-04T20:47:10.564Z,127.80
2018-11-04T20:49:44.401Z,125.40
2018-11-04T20:52:12.868Z,113.30
2018-11-04T20:54:41.360Z,104.27
2018-11-04T20:57:44.505Z,97.00
2018-11-04T21:00:14.008Z,89.77
2018-11-04T21:02:43.154Z,96.90
2018-11-04T21:05:11.532Z,116.30
2018-11-04T21:07:40.112Z,98.70
2018-11-04T21:10:09.997Z,94.33
2018-11-04T21:12:39.139Z,111.50
2018-11-04T21:15:08.007Z,131.87
2018-11-04T21:17:36.748Z,103.93
2018-11-04T21:20:05.697Z,94.90
2018-11-04T21:22:34.412Z,90.73
2018-11-04T21:25:03.314Z,84.40
2018-11-04T21:27:31.795Z,83.77
2018-11-04T21:30:00.620Z,81.27
2018-11-04T21:32:29.032Z,77.67
2018-11-04T21:34:57.711Z,74.23
2018-11-04T21:37:26.662Z,69.33
2018-11-04T21:39:55.348Z,86.90
2018-11-04T21:42:24.560Z,89.80
2018-11-04T21:44:53.120Z,95.17
2018-11-04T21:47:21.618Z,79.23
2018-11-04T21:49:50.309Z,96.73
2018-11-04T21:52:18.952Z,87.80
2018-11-04T21:54:47.566Z,93.77
2018-11-04T21:57:16.267Z,85.40
2018-11-04T21:59:44.659Z,78.13
2018-11-04T22:02:13.129Z,77.47
2018-11-04T22:04:41.636Z,68.77
2018-11-04T22:07:10.324Z,67.27
2018-11-04T22:09:38.746Z,67.10
2018-11-04T22:12:07.246Z,66.13
2018-11-04T22:14:35.760Z,58.80
2018-11-04T22:17:04.297Z,58.17
2018-11-04T22:19:32.803Z,56.77
2018-11-04T22:22:01.214Z,58.27
2018-11-04T22:24:29.613Z,61.63
2018-11-04T22:26:58.042Z,60.23
2018-11-04T22:29:26.509Z,58.77
2018-11-04T22:31:54.888Z,58.93
2018-11-04T22:34:23.297Z,97.33
2018-11-04T22:36:51.861Z,71.57
2018-11-04T22:39:20.345Z,75.50
2018-11-04T22:41:48.723Z,70.77
2018-11-04T22:44:17.131Z,71.47
2018-11-04T22:46:45.525Z,82.13
2018-11-04T22:49:14.250Z,76.60
2018-11-04T22:51:42.647Z,82.30
2018-11-04T22:54:11.415Z,77.20
2018-11-04T22:56:39.938Z,79.23
2018-11-04T22:59:08.399Z,83.27
2018-11-04T23:01:36.977Z,83.30
2018-11-04T23:04:05.402Z,81.50
2018-11-04T23:06:33.727Z,81.10
2018-11-04T23:09:02.115Z,77.27
2018-11-04T23:11:30.511Z,77.00
2018-11-04T23:13:58.908Z,77.67
2018-11-04T23:16:27.314Z,76.30
2018-11-04T23:18:55.711Z,72.57
2018-11-04T23:21:24.125Z,77.60
2018-11-04T23:23:52.548Z,80.17
2018-11-04T23:26:20.946Z,91.73
2018-11-04T23:28:49.352Z,87.10
2018-11-04T23:31:17.806Z,86.87
2018-11-04T23:33:46.333Z,88.97
2018-11-04T23:36:14.741Z,86.27
2018-11-04T23:38:43.140Z,84.73
2018-11-04T23:41:11.588Z,85.20
2018-11-04T23:43:39.982Z,83.23
2018-11-04T23:46:08.444Z,80.77
2018-11-04T23:48:36.864Z,82.80
2018-11-04T23:51:05.787Z,78.60
2018-11-04T23:53:35.003Z,97.63
2018-11-04T23:56:03.490Z,106.47
2018-11-04T23:58:31.889Z,95.07
